sensor_id;sensor_type;location;lat;lon;timestamp;P1;durP1;ratioP1;P2;durP2;ratioP2
9997;SDS011;5038;53.064;8.624;2024-02-14T00:00:07;6.37;;;5.87;;
9997;SDS011;5038;53.064;8.624;2024-02-14T00:02:43;7.17;;;6.50;;
9997;SDS011;5038;53.064;8.624;2024-02-14T00:05:14;7.10;;;6.37;;
9997;SDS011;5038;53.064;8.624;2024-02-14T00:07:43;8.93;;;7.57;;
9997;SDS011;5038;53.064;8.624;2024-02-14T00:10:11;6.73;;;6.03;;
9997;SDS011;5038;53.064;8.624;2024-02-14T00:12:39;7.13;;;6.43;;
9997;SDS011;5038;53.064;8.624;2024-02-14T00:15:08;7.53;;;6.83;;
9997;SDS011;5038;53.064;8.624;2024-02-14T00:17:37;7.63;;;6.53;;
9997;SDS011;5038;53.064;8.624;2024-02-14T00:20:06;6.83;;;6.10;;
9997;SDS011;5038;53.064;8.624;2024-02-14T00:22:39;7.63;;;6.93;;
9997;SDS011;5038;53.064;8.624;2024-02-14T00:25:07;7.07;;;6.47;;
9997;SDS011;5038;53.064;8.624;2024-02-14T00:27:36;7.73;;;6.77;;
9997;SDS011;5038;53.064;8.624;2024-02-14T00:30:05;7.77;;;7.07;;
9997;SDS011;5038;53.064;8.624;2024-02-14T00:32:34;7.73;;;7.03;;
9997;SDS011;5038;53.064;8.624;2024-02-14T00:35:03;8.47;;;7.77;;
9997;SDS011;5038;53.064;8.624;2024-02-14T00:37:32;8.77;;;7.83;;
9997;SDS011;5038;53.064;8.624;2024-02-14T00:40:02;8.33;;;7.53;;
9997;SDS011;5038;53.064;8.624;2024-02-14T00:42:30;7.70;;;7.00;;
9997;SDS011;5038;53.064;8.624;2024-02-14T00:44:59;8.83;;;8.03;;
9997;SDS011;5038;53.064;8.624;2024-02-14T00:47:27;9.07;;;7.00;;
9997;SDS011;5038;53.064;8.624;2024-02-14T00:49:56;8.47;;;7.67;;
9997;SDS011;5038;53.064;8.624;2024-02-14T00:52:24;8.60;;;7.80;;
9997;SDS011;5038;53.064;8.624;2024-02-14T00:54:53;9.77;;;7.63;;
9997;SDS011;5038;53.064;8.624;2024-02-14T00:57:23;8.10;;;7.30;;
9997;SDS011;5038;53.064;8.624;2024-02-14T00:59:52;9.37;;;8.37;;
9997;SDS011;5038;53.064;8.624;2024-02-14T01:02:22;8.23;;;7.50;;
9997;SDS011;5038;53.064;8.624;2024-02-14T01:04:52;8.80;;;7.97;;
9997;SDS011;5038;53.064;8.624;2024-02-14T01:07:21;8.73;;;7.73;;
9997;SDS011;5038;53.064;8.624;2024-02-14T01:09:49;9.40;;;8.53;;
9997;SDS011;5038;53.064;8.624;2024-02-14T01:12:17;9.00;;;8.10;;
9997;SDS011;5038;53.064;8.624;2024-02-14T01:14:47;9.83;;;8.73;;
9997;SDS011;5038;53.064;8.624;2024-02-14T01:17:16;9.13;;;8.33;;
9997;SDS011;5038;53.064;8.624;2024-02-14T01:19:44;10.47;;;9.47;;
9997;SDS011;5038;53.064;8.624;2024-02-14T01:22:13;9.40;;;8.60;;
9997;SDS011;5038;53.064;8.624;2024-02-14T01:24:42;10.33;;;7.90;;
9997;SDS011;5038;53.064;8.624;2024-02-14T01:27:11;9.93;;;8.97;;
9997;SDS011;5038;53.064;8.624;2024-02-14T01:29:39;10.40;;;9.33;;
9997;SDS011;5038;53.064;8.624;2024-02-14T01:32:09;8.93;;;8.17;;
9997;SDS011;5038;53.064;8.624;2024-02-14T01:34:37;11.13;;;9.70;;
9997;SDS011;5038;53.064;8.624;2024-02-14T01:37:05;9.13;;;8.33;;
9997;SDS011;5038;53.064;8.624;2024-02-14T01:39:36;9.90;;;9.10;;
9997;SDS011;5038;53.064;8.624;2024-02-14T01:42:04;9.87;;;8.97;;
9997;SDS011;5038;53.064;8.624;2024-02-14T01:44:34;10.37;;;8.67;;
9997;SDS011;5038;53.064;8.624;2024-02-14T01:47:03;9.90;;;9.00;;
9997;SDS011;5038;53.064;8.624;2024-02-14T01:49:34;9.80;;;8.90;;
9997;SDS011;5038;53.064;8.624;2024-02-14T01:52:03;9.07;;;8.17;;
9997;SDS011;5038;53.064;8.624;2024-02-14T01:54:32;10.20;;;9.13;;
9997;SDS011;5038;53.064;8.624;2024-02-14T01:57:02;10.63;;;9.53;;
9997;SDS011;5038;53.064;8.624;2024-02-14T01:59:33;11.30;;;10.30;;
9997;SDS011;5038;53.064;8.624;2024-02-14T02:02:02;10.37;;;9.23;;
9997;SDS011;5038;53.064;8.624;2024-02-14T02:04:36;10.87;;;9.80;;
9997;SDS011;5038;53.064;8.624;2024-02-14T02:07:04;12.40;;;10.37;;
9997;SDS011;5038;53.064;8.624;2024-02-14T02:09:32;10.63;;;9.57;;
9997;SDS011;5038;53.064;8.624;2024-02-14T02:12:01;13.00;;;9.97;;
9997;SDS011;5038;53.064;8.624;2024-02-14T02:14:34;11.13;;;10.17;;
9997;SDS011;5038;53.064;8.624;2024-02-14T02:17:03;10.73;;;9.90;;
9997;SDS011;5038;53.064;8.624;2024-02-14T02:19:35;11.63;;;10.57;;
9997;SDS011;5038;53.064;8.624;2024-02-14T02:22:04;12.83;;;10.87;;
9997;SDS011;5038;53.064;8.624;2024-02-14T02:24:33;14.43;;;10.00;;
9997;SDS011;5038;53.064;8.624;2024-02-14T02:27:02;11.37;;;10.37;;
9997;SDS011;5038;53.064;8.624;2024-02-14T02:29:31;11.53;;;10.63;;
9997;SDS011;5038;53.064;8.624;2024-02-14T02:31:59;12.20;;;11.13;;
9997;SDS011;5038;53.064;8.624;2024-02-14T02:34:28;12.50;;;11.20;;
9997;SDS011;5038;53.064;8.624;2024-02-14T02:36:56;12.77;;;11.57;;
9997;SDS011;5038;53.064;8.624;2024-02-14T02:39:24;13.00;;;11.80;;
9997;SDS011;5038;53.064;8.624;2024-02-14T02:41:54;12.93;;;11.83;;
9997;SDS011;5038;53.064;8.624;2024-02-14T02:44:24;15.17;;;12.70;;
9997;SDS011;5038;53.064;8.624;2024-02-14T02:46:53;13.57;;;12.27;;
9997;SDS011;5038;53.064;8.624;2024-02-14T02:49:22;13.73;;;12.57;;
9997;SDS011;5038;53.064;8.624;2024-02-14T02:51:50;12.33;;;11.33;;
9997;SDS011;5038;53.064;8.624;2024-02-14T02:54:19;13.63;;;12.30;;
9997;SDS011;5038;53.064;8.624;2024-02-14T02:56:48;17.07;;;13.50;;
9997;SDS011;5038;53.064;8.624;2024-02-14T02:59:18;13.80;;;12.43;;
9997;SDS011;5038;53.064;8.624;2024-02-14T03:01:46;14.60;;;13.03;;
9997;SDS011;5038;53.064;8.624;2024-02-14T03:04:16;14.63;;;13.40;;
9997;SDS011;5038;53.064;8.624;2024-02-14T03:06:45;15.23;;;13.93;;
9997;SDS011;5038;53.064;8.624;2024-02-14T03:09:14;14.80;;;13.60;;
9997;SDS011;5038;53.064;8.624;2024-02-14T03:11:45;17.27;;;15.53;;
9997;SDS011;5038;53.064;8.624;2024-02-14T03:14:14;16.57;;;15.07;;
9997;SDS011;5038;53.064;8.624;2024-02-14T03:16:43;16.33;;;14.83;;
9997;SDS011;5038;53.064;8.624;2024-02-14T03:19:12;16.70;;;15.30;;
9997;SDS011;5038;53.064;8.624;2024-02-14T03:21:40;17.10;;;15.70;;
9997;SDS011;5038;53.064;8.624;2024-02-14T03:24:10;16.73;;;15.40;;
9997;SDS011;5038;53.064;8.624;2024-02-14T03:26:39;17.97;;;16.47;;
9997;SDS011;5038;53.064;8.624;2024-02-14T03:29:08;16.63;;;15.23;;
9997;SDS011;5038;53.064;8.624;2024-02-14T03:31:36;17.17;;;15.67;;
9997;SDS011;5038;53.064;8.624;2024-02-14T03:34:06;17.60;;;16.10;;
9997;SDS011;5038;53.064;8.624;2024-02-14T03:36:36;18.30;;;16.80;;
9997;SDS011;5038;53.064;8.624;2024-02-14T03:39:04;18.00;;;16.30;;
9997;SDS011;5038;53.064;8.624;2024-02-14T03:41:33;18.70;;;16.87;;
9997;SDS011;5038;53.064;8.624;2024-02-14T03:44:01;18.23;;;16.57;;
9997;SDS011;5038;53.064;8.624;2024-02-14T03:46:30;17.43;;;15.87;;
9997;SDS011;5038;53.064;8.624;2024-02-14T03:49:01;17.40;;;15.87;;
9997;SDS011;5038;53.064;8.624;2024-02-14T03:51:31;19.40;;;17.60;;
9997;SDS011;5038;53.064;8.624;2024-02-14T03:54:00;19.80;;;17.90;;
9997;SDS011;5038;53.064;8.624;2024-02-14T03:56:28;17.93;;;16.43;;
9997;SDS011;5038;53.064;8.624;2024-02-14T03:58:59;18.50;;;16.90;;
9997;SDS011;5038;53.064;8.624;2024-02-14T04:01:27;17.50;;;16.10;;
9997;SDS011;5038;53.064;8.624;2024-02-14T04:03:57;18.87;;;17.37;;
9997;SDS011;5038;53.064;8.624;2024-02-14T04:06:26;19.67;;;17.87;;
9997;SDS011;5038;53.064;8.624;2024-02-14T04:08:55;18.73;;;17.23;;
9997;SDS011;5038;53.064;8.624;2024-02-14T04:11:24;17.90;;;16.50;;
9997;SDS011;5038;53.064;8.624;2024-02-14T04:13:52;20.97;;;19.27;;
9997;SDS011;5038;53.064;8.624;2024-02-14T04:16:20;17.93;;;16.33;;
9997;SDS011;5038;53.064;8.624;2024-02-14T04:18:48;17.20;;;15.80;;
9997;SDS011;5038;53.064;8.624;2024-02-14T04:21:17;20.80;;;19.00;;
9997;SDS011;5038;53.064;8.624;2024-02-14T04:23:45;20.30;;;18.40;;
9997;SDS011;5038;53.064;8.624;2024-02-14T04:26:19;23.33;;;20.03;;
9997;SDS011;5038;53.064;8.624;2024-02-14T04:28:47;20.53;;;18.83;;
9997;SDS011;5038;53.064;8.624;2024-02-14T04:31:16;20.37;;;18.77;;
9997;SDS011;5038;53.064;8.624;2024-02-14T04:33:44;23.67;;;21.57;;
9997;SDS011;5038;53.064;8.624;2024-02-14T04:36:17;20.03;;;18.43;;
9997;SDS011;5038;53.064;8.624;2024-02-14T04:38:46;19.80;;;18.07;;
9997;SDS011;5038;53.064;8.624;2024-02-14T04:41:15;18.97;;;17.47;;
9997;SDS011;5038;53.064;8.624;2024-02-14T04:43:44;18.50;;;16.90;;
9997;SDS011;5038;53.064;8.624;2024-02-14T04:46:13;19.30;;;17.80;;
9997;SDS011;5038;53.064;8.624;2024-02-14T04:48:41;19.30;;;17.80;;
9997;SDS011;5038;53.064;8.624;2024-02-14T04:51:09;18.70;;;17.20;;
9997;SDS011;5038;53.064;8.624;2024-02-14T04:53:38;18.80;;;17.30;;
9997;SDS011;5038;53.064;8.624;2024-02-14T04:56:06;18.80;;;17.30;;
9997;SDS011;5038;53.064;8.624;2024-02-14T04:58:35;19.37;;;17.73;;
9997;SDS011;5038;53.064;8.624;2024-02-14T05:01:04;20.60;;;19.00;;
9997;SDS011;5038;53.064;8.624;2024-02-14T05:03:33;20.23;;;18.53;;
9997;SDS011;5038;53.064;8.624;2024-02-14T05:06:03;20.80;;;19.10;;
9997;SDS011;5038;53.064;8.624;2024-02-14T05:08:32;19.57;;;17.87;;
9997;SDS011;5038;53.064;8.624;2024-02-14T05:11:00;19.97;;;18.37;;
9997;SDS011;5038;53.064;8.624;2024-02-14T05:13:29;19.20;;;17.80;;
9997;SDS011;5038;53.064;8.624;2024-02-14T05:15:58;19.67;;;18.17;;
9997;SDS011;5038;53.064;8.624;2024-02-14T05:18:31;18.77;;;17.27;;
9997;SDS011;5038;53.064;8.624;2024-02-14T05:20:59;19.70;;;18.10;;
9997;SDS011;5038;53.064;8.624;2024-02-14T05:23:28;21.10;;;19.40;;
9997;SDS011;5038;53.064;8.624;2024-02-14T05:25:56;20.87;;;19.07;;
9997;SDS011;5038;53.064;8.624;2024-02-14T05:28:24;19.87;;;18.17;;
9997;SDS011;5038;53.064;8.624;2024-02-14T05:30:53;21.17;;;19.40;;
9997;SDS011;5038;53.064;8.624;2024-02-14T05:33:21;21.20;;;19.60;;
9997;SDS011;5038;53.064;8.624;2024-02-14T05:35:51;21.83;;;20.03;;
9997;SDS011;5038;53.064;8.624;2024-02-14T05:38:19;20.70;;;19.03;;
9997;SDS011;5038;53.064;8.624;2024-02-14T05:40:48;20.47;;;18.77;;
9997;SDS011;5038;53.064;8.624;2024-02-14T05:43:16;20.47;;;18.87;;
9997;SDS011;5038;53.064;8.624;2024-02-14T05:45:45;22.73;;;20.83;;
9997;SDS011;5038;53.064;8.624;2024-02-14T05:48:13;20.53;;;18.73;;
9997;SDS011;5038;53.064;8.624;2024-02-14T05:50:42;19.67;;;18.17;;
9997;SDS011;5038;53.064;8.624;2024-02-14T05:53:11;21.53;;;19.63;;
9997;SDS011;5038;53.064;8.624;2024-02-14T05:55:39;22.40;;;20.60;;
9997;SDS011;5038;53.064;8.624;2024-02-14T05:58:08;21.83;;;20.03;;
9997;SDS011;5038;53.064;8.624;2024-02-14T06:00:36;20.83;;;19.23;;
9997;SDS011;5038;53.064;8.624;2024-02-14T06:03:04;21.10;;;19.43;;
9997;SDS011;5038;53.064;8.624;2024-02-14T06:05:34;22.13;;;20.33;;
9997;SDS011;5038;53.064;8.624;2024-02-14T06:08:02;20.90;;;19.20;;
9997;SDS011;5038;53.064;8.624;2024-02-14T06:10:32;22.27;;;20.43;;
9997;SDS011;5038;53.064;8.624;2024-02-14T06:13:02;22.30;;;20.50;;
9997;SDS011;5038;53.064;8.624;2024-02-14T06:15:30;22.93;;;21.13;;
9997;SDS011;5038;53.064;8.624;2024-02-14T06:17:58;20.77;;;18.97;;
9997;SDS011;5038;53.064;8.624;2024-02-14T06:20:27;22.70;;;20.83;;
9997;SDS011;5038;53.064;8.624;2024-02-14T06:22:55;22.17;;;20.17;;
9997;SDS011;5038;53.064;8.624;2024-02-14T06:25:33;22.60;;;20.70;;
9997;SDS011;5038;53.064;8.624;2024-02-14T06:28:01;21.13;;;19.30;;
9997;SDS011;5038;53.064;8.624;2024-02-14T06:30:29;21.80;;;19.90;;
9997;SDS011;5038;53.064;8.624;2024-02-14T06:32:59;21.73;;;19.83;;
9997;SDS011;5038;53.064;8.624;2024-02-14T06:35:29;22.70;;;20.80;;
9997;SDS011;5038;53.064;8.624;2024-02-14T06:37:58;21.80;;;19.87;;
9997;SDS011;5038;53.064;8.624;2024-02-14T06:40:30;20.47;;;18.77;;
9997;SDS011;5038;53.064;8.624;2024-02-14T06:43:00;22.17;;;20.17;;
9997;SDS011;5038;53.064;8.624;2024-02-14T06:45:29;22.33;;;20.33;;
9997;SDS011;5038;53.064;8.624;2024-02-14T06:47:57;22.20;;;20.30;;
9997;SDS011;5038;53.064;8.624;2024-02-14T06:50:26;21.30;;;19.40;;
9997;SDS011;5038;53.064;8.624;2024-02-14T06:52:55;20.60;;;18.80;;
9997;SDS011;5038;53.064;8.624;2024-02-14T06:55:26;21.47;;;19.67;;
9997;SDS011;5038;53.064;8.624;2024-02-14T06:57:56;20.30;;;18.60;;
9997;SDS011;5038;53.064;8.624;2024-02-14T07:00:24;19.27;;;17.67;;
9997;SDS011;5038;53.064;8.624;2024-02-14T07:02:52;20.67;;;18.97;;
9997;SDS011;5038;53.064;8.624;2024-02-14T07:05:21;18.43;;;16.83;;
9997;SDS011;5038;53.064;8.624;2024-02-14T07:07:49;19.67;;;17.87;;
9997;SDS011;5038;53.064;8.624;2024-02-14T07:10:18;18.70;;;17.10;;
9997;SDS011;5038;53.064;8.624;2024-02-14T07:12:46;18.53;;;16.93;;
9997;SDS011;5038;53.064;8.624;2024-02-14T07:15:15;17.80;;;16.30;;
9997;SDS011;5038;53.064;8.624;2024-02-14T07:17:44;17.90;;;16.40;;
9997;SDS011;5038;53.064;8.624;2024-02-14T07:20:13;16.47;;;15.07;;
9997;SDS011;5038;53.064;8.624;2024-02-14T07:22:43;17.37;;;15.67;;
9997;SDS011;5038;53.064;8.624;2024-02-14T07:25:14;15.93;;;14.63;;
9997;SDS011;5038;53.064;8.624;2024-02-14T07:27:42;16.50;;;15.10;;
9997;SDS011;5038;53.064;8.624;2024-02-14T07:30:12;17.00;;;15.50;;
9997;SDS011;5038;53.064;8.624;2024-02-14T07:32:42;15.07;;;13.87;;
9997;SDS011;5038;53.064;8.624;2024-02-14T07:35:11;16.43;;;14.93;;
9997;SDS011;5038;53.064;8.624;2024-02-14T07:37:40;15.33;;;14.00;;
9997;SDS011;5038;53.064;8.624;2024-02-14T07:40:09;16.27;;;14.87;;
9997;SDS011;5038;53.064;8.624;2024-02-14T07:42:42;16.10;;;14.70;;
9997;SDS011;5038;53.064;8.624;2024-02-14T07:45:10;16.03;;;14.63;;
9997;SDS011;5038;53.064;8.624;2024-02-14T07:47:40;15.03;;;13.63;;
9997;SDS011;5038;53.064;8.624;2024-02-14T07:50:09;15.43;;;14.13;;
9997;SDS011;5038;53.064;8.624;2024-02-14T07:52:41;15.33;;;14.03;;
9997;SDS011;5038;53.064;8.624;2024-02-14T07:55:10;16.53;;;15.17;;
9997;SDS011;5038;53.064;8.624;2024-02-14T07:57:38;14.57;;;13.27;;
9997;SDS011;5038;53.064;8.624;2024-02-14T08:00:07;15.73;;;14.43;;
9997;SDS011;5038;53.064;8.624;2024-02-14T08:02:37;14.50;;;13.30;;
9997;SDS011;5038;53.064;8.624;2024-02-14T08:05:07;14.27;;;13.07;;
9997;SDS011;5038;53.064;8.624;2024-02-14T08:07:35;13.73;;;12.53;;
9997;SDS011;5038;53.064;8.624;2024-02-14T08:10:04;12.73;;;11.67;;
9997;SDS011;5038;53.064;8.624;2024-02-14T08:12:33;12.97;;;11.87;;
9997;SDS011;5038;53.064;8.624;2024-02-14T08:15:01;11.27;;;10.33;;
9997;SDS011;5038;53.064;8.624;2024-02-14T08:17:31;11.73;;;10.70;;
9997;SDS011;5038;53.064;8.624;2024-02-14T08:20:00;11.33;;;10.40;;
9997;SDS011;5038;53.064;8.624;2024-02-14T08:22:31;11.93;;;10.90;;
9997;SDS011;5038;53.064;8.624;2024-02-14T08:25:00;11.10;;;10.10;;
9997;SDS011;5038;53.064;8.624;2024-02-14T08:27:28;9.17;;;8.30;;
9997;SDS011;5038;53.064;8.624;2024-02-14T08:29:58;10.70;;;9.80;;
9997;SDS011;5038;53.064;8.624;2024-02-14T08:32:26;10.30;;;9.40;;
9997;SDS011;5038;53.064;8.624;2024-02-14T08:34:54;9.77;;;8.97;;
9997;SDS011;5038;53.064;8.624;2024-02-14T08:37:24;9.57;;;8.80;;
9997;SDS011;5038;53.064;8.624;2024-02-14T08:39:54;9.73;;;8.93;;
9997;SDS011;5038;53.064;8.624;2024-02-14T08:42:22;9.00;;;8.20;;
9997;SDS011;5038;53.064;8.624;2024-02-14T08:44:50;10.70;;;9.80;;
9997;SDS011;5038;53.064;8.624;2024-02-14T08:47:18;11.50;;;10.60;;
9997;SDS011;5038;53.064;8.624;2024-02-14T08:49:46;12.93;;;11.83;;
9997;SDS011;5038;53.064;8.624;2024-02-14T08:52:15;13.20;;;12.07;;
9997;SDS011;5038;53.064;8.624;2024-02-14T08:54:43;12.90;;;11.70;;
9997;SDS011;5038;53.064;8.624;2024-02-14T08:57:13;13.53;;;12.37;;
9997;SDS011;5038;53.064;8.624;2024-02-14T08:59:41;14.07;;;12.87;;
9997;SDS011;5038;53.064;8.624;2024-02-14T09:02:13;14.40;;;13.07;;
9997;SDS011;5038;53.064;8.624;2024-02-14T09:04:42;13.57;;;12.30;;
9997;SDS011;5038;53.064;8.624;2024-02-14T09:07:11;14.23;;;12.93;;
9997;SDS011;5038;53.064;8.624;2024-02-14T09:09:40;13.93;;;12.63;;
9997;SDS011;5038;53.064;8.624;2024-02-14T09:12:08;12.43;;;11.33;;
9997;SDS011;5038;53.064;8.624;2024-02-14T09:14:38;14.50;;;13.13;;
9997;SDS011;5038;53.064;8.624;2024-02-14T09:17:06;14.03;;;12.53;;
9997;SDS011;5038;53.064;8.624;2024-02-14T09:19:34;13.30;;;12.00;;
9997;SDS011;5038;53.064;8.624;2024-02-14T09:22:03;14.17;;;12.87;;
9997;SDS011;5038;53.064;8.624;2024-02-14T09:24:32;15.23;;;13.80;;
9997;SDS011;5038;53.064;8.624;2024-02-14T09:27:01;16.07;;;14.57;;
9997;SDS011;5038;53.064;8.624;2024-02-14T09:29:32;16.20;;;14.60;;
9997;SDS011;5038;53.064;8.624;2024-02-14T09:32:02;16.63;;;14.83;;
9997;SDS011;5038;53.064;8.624;2024-02-14T09:34:31;16.80;;;15.07;;
9997;SDS011;5038;53.064;8.624;2024-02-14T09:36:59;17.90;;;16.20;;
9997;SDS011;5038;53.064;8.624;2024-02-14T09:39:27;26.63;;;17.07;;
9997;SDS011;5038;53.064;8.624;2024-02-14T09:41:56;17.83;;;16.03;;
9997;SDS011;5038;53.064;8.624;2024-02-14T09:44:27;17.00;;;15.30;;
9997;SDS011;5038;53.064;8.624;2024-02-14T09:46:56;17.90;;;16.03;;
9997;SDS011;5038;53.064;8.624;2024-02-14T09:49:27;18.07;;;16.27;;
9997;SDS011;5038;53.064;8.624;2024-02-14T09:51:57;19.90;;;17.80;;
9997;SDS011;5038;53.064;8.624;2024-02-14T09:54:26;17.90;;;16.10;;
9997;SDS011;5038;53.064;8.624;2024-02-14T09:56:54;17.00;;;15.30;;
9997;SDS011;5038;53.064;8.624;2024-02-14T09:59:24;19.00;;;16.83;;
9997;SDS011;5038;53.064;8.624;2024-02-14T10:01:52;18.90;;;16.93;;
9997;SDS011;5038;53.064;8.624;2024-02-14T10:04:20;19.07;;;17.07;;
9997;SDS011;5038;53.064;8.624;2024-02-14T10:06:53;19.40;;;17.07;;
9997;SDS011;5038;53.064;8.624;2024-02-14T10:09:21;19.00;;;17.20;;
9997;SDS011;5038;53.064;8.624;2024-02-14T10:11:52;18.67;;;16.63;;
9997;SDS011;5038;53.064;8.624;2024-02-14T10:14:22;19.30;;;17.17;;
9997;SDS011;5038;53.064;8.624;2024-02-14T10:16:50;18.27;;;16.53;;
9997;SDS011;5038;53.064;8.624;2024-02-14T10:19:18;18.70;;;16.80;;
9997;SDS011;5038;53.064;8.624;2024-02-14T10:21:56;18.03;;;16.33;;
9997;SDS011;5038;53.064;8.624;2024-02-14T10:24:25;19.23;;;17.17;;
9997;SDS011;5038;53.064;8.624;2024-02-14T10:26:54;18.73;;;16.93;;
9997;SDS011;5038;53.064;8.624;2024-02-14T10:29:24;18.43;;;16.53;;
9997;SDS011;5038;53.064;8.624;2024-02-14T10:31:53;18.40;;;16.60;;
9997;SDS011;5038;53.064;8.624;2024-02-14T10:34:24;19.40;;;17.40;;
9997;SDS011;5038;53.064;8.624;2024-02-14T10:36:54;19.33;;;17.33;;
9997;SDS011;5038;53.064;8.624;2024-02-14T10:39:26;19.73;;;17.70;;
9997;SDS011;5038;53.064;8.624;2024-02-14T10:41:57;18.97;;;17.10;;
9997;SDS011;5038;53.064;8.624;2024-02-14T10:44:26;19.37;;;17.40;;
9997;SDS011;5038;53.064;8.624;2024-02-14T10:46:55;19.57;;;17.57;;
9997;SDS011;5038;53.064;8.624;2024-02-14T10:49:27;18.90;;;17.10;;
9997;SDS011;5038;53.064;8.624;2024-02-14T10:51:58;19.53;;;17.63;;
9997;SDS011;5038;53.064;8.624;2024-02-14T10:54:30;17.93;;;16.27;;
9997;SDS011;5038;53.064;8.624;2024-02-14T10:57:03;18.13;;;16.33;;
9997;SDS011;5038;53.064;8.624;2024-02-14T10:59:38;18.27;;;16.50;;
9997;SDS011;5038;53.064;8.624;2024-02-14T11:02:10;17.50;;;15.80;;
9997;SDS011;5038;53.064;8.624;2024-02-14T11:04:40;18.67;;;16.77;;
9997;SDS011;5038;53.064;8.624;2024-02-14T11:07:10;16.97;;;15.30;;
9997;SDS011;5038;53.064;8.624;2024-02-14T11:09:40;16.23;;;14.53;;
9997;SDS011;5038;53.064;8.624;2024-02-14T11:12:08;18.00;;;16.20;;
9997;SDS011;5038;53.064;8.624;2024-02-14T11:14:38;19.27;;;17.37;;
9997;SDS011;5038;53.064;8.624;2024-02-14T11:17:12;17.20;;;15.60;;
9997;SDS011;5038;53.064;8.624;2024-02-14T11:19:40;17.83;;;16.13;;
9997;SDS011;5038;53.064;8.624;2024-02-14T11:22:11;16.00;;;14.53;;
9997;SDS011;5038;53.064;8.624;2024-02-14T11:24:40;16.83;;;15.30;;
9997;SDS011;5038;53.064;8.624;2024-02-14T11:27:09;16.70;;;15.00;;
9997;SDS011;5038;53.064;8.624;2024-02-14T11:29:58;16.73;;;13.97;;
9997;SDS011;5038;53.064;8.624;2024-02-14T11:32:27;16.53;;;14.83;;
9997;SDS011;5038;53.064;8.624;2024-02-14T11:34:57;15.73;;;14.27;;
9997;SDS011;5038;53.064;8.624;2024-02-14T11:37:30;14.27;;;12.97;;
9997;SDS011;5038;53.064;8.624;2024-02-14T11:39:58;14.77;;;13.47;;
9997;SDS011;5038;53.064;8.624;2024-02-14T11:42:28;15.20;;;13.60;;
9997;SDS011;5038;53.064;8.624;2024-02-14T11:44:57;15.00;;;13.60;;
9997;SDS011;5038;53.064;8.624;2024-02-14T11:47:25;15.63;;;14.17;;
9997;SDS011;5038;53.064;8.624;2024-02-14T11:49:54;15.30;;;14.00;;
9997;SDS011;5038;53.064;8.624;2024-02-14T11:52:25;16.23;;;14.73;;
9997;SDS011;5038;53.064;8.624;2024-02-14T11:54:55;16.57;;;15.07;;
9997;SDS011;5038;53.064;8.624;2024-02-14T11:57:26;15.40;;;14.00;;
9997;SDS011;5038;53.064;8.624;2024-02-14T11:59:55;15.97;;;14.37;;
9997;SDS011;5038;53.064;8.624;2024-02-14T12:02:25;14.60;;;13.20;;
9997;SDS011;5038;53.064;8.624;2024-02-14T12:04:53;14.37;;;13.17;;
9997;SDS011;5038;53.064;8.624;2024-02-14T12:07:22;14.50;;;13.00;;
9997;SDS011;5038;53.064;8.624;2024-02-14T12:09:51;13.37;;;12.17;;
9997;SDS011;5038;53.064;8.624;2024-02-14T12:12:23;14.23;;;12.80;;
9997;SDS011;5038;53.064;8.624;2024-02-14T12:14:52;14.13;;;12.80;;
9997;SDS011;5038;53.064;8.624;2024-02-14T12:17:20;12.93;;;11.50;;
9997;SDS011;5038;53.064;8.624;2024-02-14T12:19:48;12.17;;;11.17;;
9997;SDS011;5038;53.064;8.624;2024-02-14T12:22:18;14.50;;;13.20;;
9997;SDS011;5038;53.064;8.624;2024-02-14T12:24:47;13.73;;;12.63;;
9997;SDS011;5038;53.064;8.624;2024-02-14T12:27:16;13.07;;;11.97;;
9997;SDS011;5038;53.064;8.624;2024-02-14T12:29:47;13.40;;;12.10;;
9997;SDS011;5038;53.064;8.624;2024-02-14T12:32:16;12.60;;;11.57;;
9997;SDS011;5038;53.064;8.624;2024-02-14T12:34:44;13.50;;;12.40;;
9997;SDS011;5038;53.064;8.624;2024-02-14T12:37:13;14.70;;;13.40;;
9997;SDS011;5038;53.064;8.624;2024-02-14T12:39:41;14.03;;;12.93;;
9997;SDS011;5038;53.064;8.624;2024-02-14T12:42:10;14.10;;;12.80;;
9997;SDS011;5038;53.064;8.624;2024-02-14T12:44:38;12.47;;;11.37;;
9997;SDS011;5038;53.064;8.624;2024-02-14T12:47:08;13.03;;;11.93;;
9997;SDS011;5038;53.064;8.624;2024-02-14T12:49:36;13.63;;;12.53;;
9997;SDS011;5038;53.064;8.624;2024-02-14T12:52:05;14.13;;;12.80;;
9997;SDS011;5038;53.064;8.624;2024-02-14T12:54:33;13.30;;;12.20;;
9997;SDS011;5038;53.064;8.624;2024-02-14T12:57:01;13.10;;;11.80;;
9997;SDS011;5038;53.064;8.624;2024-02-14T12:59:31;13.17;;;12.07;;
9997;SDS011;5038;53.064;8.624;2024-02-14T13:01:59;13.93;;;12.80;;
9997;SDS011;5038;53.064;8.624;2024-02-14T13:04:29;13.80;;;12.50;;
9997;SDS011;5038;53.064;8.624;2024-02-14T13:06:58;12.63;;;11.53;;
9997;SDS011;5038;53.064;8.624;2024-02-14T13:09:27;11.93;;;10.87;;
9997;SDS011;5038;53.064;8.624;2024-02-14T13:11:55;12.23;;;11.17;;
9997;SDS011;5038;53.064;8.624;2024-02-14T13:14:23;11.90;;;10.80;;
9997;SDS011;5038;53.064;8.624;2024-02-14T13:16:53;12.17;;;11.17;;
9997;SDS011;5038;53.064;8.624;2024-02-14T13:19:21;11.60;;;10.60;;
9997;SDS011;5038;53.064;8.624;2024-02-14T13:21:51;11.23;;;10.13;;
9997;SDS011;5038;53.064;8.624;2024-02-14T13:24:19;11.23;;;10.23;;
9997;SDS011;5038;53.064;8.624;2024-02-14T13:26:48;13.03;;;12.00;;
9997;SDS011;5038;53.064;8.624;2024-02-14T13:29:16;12.10;;;11.10;;
9997;SDS011;5038;53.064;8.624;2024-02-14T13:31:45;11.17;;;10.27;;
9997;SDS011;5038;53.064;8.624;2024-02-14T13:34:14;11.30;;;10.30;;
9997;SDS011;5038;53.064;8.624;2024-02-14T13:36:43;11.20;;;10.20;;
9997;SDS011;5038;53.064;8.624;2024-02-14T13:39:12;11.77;;;10.73;;
9997;SDS011;5038;53.064;8.624;2024-02-14T13:41:41;10.83;;;9.93;;
9997;SDS011;5038;53.064;8.624;2024-02-14T13:44:11;11.93;;;10.93;;
9997;SDS011;5038;53.064;8.624;2024-02-14T13:46:39;13.03;;;11.73;;
9997;SDS011;5038;53.064;8.624;2024-02-14T13:49:11;12.70;;;11.60;;
9997;SDS011;5038;53.064;8.624;2024-02-14T13:51:44;11.87;;;10.87;;
9997;SDS011;5038;53.064;8.624;2024-02-14T13:54:14;12.23;;;11.17;;
9997;SDS011;5038;53.064;8.624;2024-02-14T13:56:43;12.13;;;11.13;;
9997;SDS011;5038;53.064;8.624;2024-02-14T13:59:11;12.73;;;11.70;;
9997;SDS011;5038;53.064;8.624;2024-02-14T14:01:39;14.60;;;13.30;;
9997;SDS011;5038;53.064;8.624;2024-02-14T14:04:08;13.07;;;12.07;;
9997;SDS011;5038;53.064;8.624;2024-02-14T14:06:36;11.63;;;10.73;;
9997;SDS011;5038;53.064;8.624;2024-02-14T14:09:05;13.47;;;12.17;;
9997;SDS011;5038;53.064;8.624;2024-02-14T14:11:37;12.17;;;11.17;;
9997;SDS011;5038;53.064;8.624;2024-02-14T14:14:06;13.37;;;12.27;;
9997;SDS011;5038;53.064;8.624;2024-02-14T14:16:37;13.20;;;12.20;;
9997;SDS011;5038;53.064;8.624;2024-02-14T14:19:06;13.10;;;12.00;;
9997;SDS011;5038;53.064;8.624;2024-02-14T14:21:35;13.37;;;12.27;;
9997;SDS011;5038;53.064;8.624;2024-02-14T14:24:04;13.17;;;12.07;;
9997;SDS011;5038;53.064;8.624;2024-02-14T14:26:33;12.60;;;11.53;;
9997;SDS011;5038;53.064;8.624;2024-02-14T14:29:03;13.20;;;12.10;;
9997;SDS011;5038;53.064;8.624;2024-02-14T14:31:32;13.13;;;12.03;;
9997;SDS011;5038;53.064;8.624;2024-02-14T14:34:02;12.40;;;11.20;;
9997;SDS011;5038;53.064;8.624;2024-02-14T14:36:31;12.33;;;11.33;;
9997;SDS011;5038;53.064;8.624;2024-02-14T14:38:59;12.20;;;11.20;;
9997;SDS011;5038;53.064;8.624;2024-02-14T14:41:28;12.37;;;11.27;;
9997;SDS011;5038;53.064;8.624;2024-02-14T14:43:57;11.87;;;10.87;;
9997;SDS011;5038;53.064;8.624;2024-02-14T14:46:27;11.00;;;10.10;;
9997;SDS011;5038;53.064;8.624;2024-02-14T14:48:57;11.47;;;10.57;;
9997;SDS011;5038;53.064;8.624;2024-02-14T14:51:25;11.07;;;10.07;;
9997;SDS011;5038;53.064;8.624;2024-02-14T14:53:54;11.47;;;10.47;;
9997;SDS011;5038;53.064;8.624;2024-02-14T14:56:22;10.57;;;9.50;;
9997;SDS011;5038;53.064;8.624;2024-02-14T14:58:52;10.40;;;9.50;;
9997;SDS011;5038;53.064;8.624;2024-02-14T15:01:20;12.20;;;11.20;;
9997;SDS011;5038;53.064;8.624;2024-02-14T15:03:50;11.87;;;10.90;;